sensor_id;sensor_type;location;lat;lon;timestamp;pressure;altitude;pressure_sealevel;temperature;humidity
41254;BME280;26987;59.928;30.306;2023-06-26T00:00:37;101354.94;;;16.59;99.99
41254;BME280;26987;59.928;30.306;2023-06-26T00:03:05;101369.53;;;16.70;99.63
41254;BME280;26987;59.928;30.306;2023-06-26T00:05:33;101365.19;;;16.69;99.64
41254;BME280;26987;59.928;30.306;2023-06-26T00:08:01;101365.41;;;16.68;100.00
41254;BME280;26987;59.928;30.306;2023-06-26T00:10:30;101368.25;;;16.61;100.00
41254;BME280;26987;59.928;30.306;2023-06-26T00:12:58;101369.88;;;16.62;100.00
41254;BME280;26987;59.928;30.306;2023-06-26T00:15:26;101363.28;;;16.58;100.00
41254;BME280;26987;59.928;30.306;2023-06-26T00:17:58;101368.31;;;16.54;100.00
41254;BME280;26987;59.928;30.306;2023-06-26T00:20:26;101363.38;;;16.51;100.00
41254;BME280;26987;59.928;30.306;2023-06-26T00:22:54;101358.66;;;16.46;100.00
41254;BME280;26987;59.928;30.306;2023-06-26T00:25:25;101365.13;;;16.45;100.00
41254;BME280;26987;59.928;30.306;2023-06-26T00:27:54;101367.47;;;16.42;100.00
41254;BME280;26987;59.928;30.306;2023-06-26T00:30:22;101357.94;;;16.39;100.00
41254;BME280;26987;59.928;30.306;2023-06-26T00:32:50;101363.13;;;16.41;100.00
41254;BME280;26987;59.928;30.306;2023-06-26T00:35:19;101355.84;;;16.41;100.00
41254;BME280;26987;59.928;30.306;2023-06-26T00:37:47;101344.16;;;16.29;100.00
41254;BME280;26987;59.928;30.306;2023-06-26T00:40:16;101364.72;;;16.30;100.00
41254;BME280;26987;59.928;30.306;2023-06-26T00:42:44;101361.06;;;16.24;100.00
41254;BME280;26987;59.928;30.306;2023-06-26T00:45:15;101358.47;;;16.17;100.00
41254;BME280;26987;59.928;30.306;2023-06-26T00:47:43;101360.00;;;16.13;100.00
41254;BME280;26987;59.928;30.306;2023-06-26T00:50:11;101362.31;;;16.09;100.00
41254;BME280;26987;59.928;30.306;2023-06-26T00:52:39;101358.78;;;16.09;100.00
41254;BME280;26987;59.928;30.306;2023-06-26T00:55:07;101345.94;;;16.04;100.00
41254;BME280;26987;59.928;30.306;2023-06-26T00:57:36;101334.81;;;15.94;100.00
41254;BME280;26987;59.928;30.306;2023-06-26T01:00:05;101352.78;;;16.07;100.00
41254;BME280;26987;59.928;30.306;2023-06-26T01:02:36;101355.25;;;16.08;100.00
41254;BME280;26987;59.928;30.306;2023-06-26T01:05:06;101355.59;;;16.12;100.00
41254;BME280;26987;59.928;30.306;2023-06-26T01:07:36;101339.25;;;16.07;100.00
41254;BME280;26987;59.928;30.306;2023-06-26T01:10:05;101352.81;;;16.19;100.00
41254;BME280;26987;59.928;30.306;2023-06-26T01:12:33;101345.91;;;16.23;100.00
41254;BME280;26987;59.928;30.306;2023-06-26T01:15:02;101353.31;;;16.27;100.00
41254;BME280;26987;59.928;30.306;2023-06-26T01:17:31;101351.91;;;16.25;100.00
41254;BME280;26987;59.928;30.306;2023-06-26T01:20:00;101358.16;;;16.37;100.00
41254;BME280;26987;59.928;30.306;2023-06-26T01:22:34;101350.66;;;16.39;100.00
41254;BME280;26987;59.928;30.306;2023-06-26T01:25:17;101353.25;;;16.46;100.00
41254;BME280;26987;59.928;30.306;2023-06-26T01:27:50;101343.63;;;16.50;100.00
41254;BME280;26987;59.928;30.306;2023-06-26T01:30:21;101355.03;;;16.52;100.00
41254;BME280;26987;59.928;30.306;2023-06-26T01:32:49;101356.22;;;16.57;100.00
41254;BME280;26987;59.928;30.306;2023-06-26T01:35:18;101358.44;;;16.60;100.00
41254;BME280;26987;59.928;30.306;2023-06-26T01:37:46;101352.09;;;16.66;100.00
41254;BME280;26987;59.928;30.306;2023-06-26T01:40:14;101352.94;;;16.67;99.74
41254;BME280;26987;59.928;30.306;2023-06-26T01:42:42;101352.25;;;16.71;99.42
41254;BME280;26987;59.928;30.306;2023-06-26T01:45:16;101330.91;;;16.63;99.74
41254;BME280;26987;59.928;30.306;2023-06-26T01:47:50;101346.47;;;16.68;99.88
41254;BME280;26987;59.928;30.306;2023-06-26T01:50:22;101352.25;;;16.71;99.54
41254;BME280;26987;59.928;30.306;2023-06-26T01:53:00;101345.31;;;16.75;99.94
41254;BME280;26987;59.928;30.306;2023-06-26T01:55:32;101342.34;;;16.65;99.55
41254;BME280;26987;59.928;30.306;2023-06-26T01:58:04;101355.75;;;16.72;99.49
41254;BME280;26987;59.928;30.306;2023-06-26T02:00:33;101343.66;;;16.74;98.38
41254;BME280;26987;59.928;30.306;2023-06-26T02:03:02;101347.09;;;16.94;97.23
41254;BME280;26987;59.928;30.306;2023-06-26T02:05:31;101345.69;;;17.27;95.35
41254;BME280;26987;59.928;30.306;2023-06-26T02:08:00;101341.53;;;17.48;92.38
41254;BME280;26987;59.928;30.306;2023-06-26T02:10:30;101348.97;;;17.82;90.89
41254;BME280;26987;59.928;30.306;2023-06-26T02:12:58;101348.25;;;18.28;88.62
41254;BME280;26987;59.928;30.306;2023-06-26T02:15:26;101348.34;;;18.50;86.25
41254;BME280;26987;59.928;30.306;2023-06-26T02:17:56;101348.44;;;18.73;84.52
41254;BME280;26987;59.928;30.306;2023-06-26T02:20:23;101354.53;;;18.80;83.53
41254;BME280;26987;59.928;30.306;2023-06-26T02:22:51;101349.03;;;18.75;83.40
41254;BME280;26987;59.928;30.306;2023-06-26T02:25:19;101347.28;;;18.69;82.31
41254;BME280;26987;59.928;30.306;2023-06-26T02:27:47;101348.84;;;18.99;79.58
41254;BME280;26987;59.928;30.306;2023-06-26T02:30:15;101349.28;;;19.08;78.23
41254;BME280;26987;59.928;30.306;2023-06-26T02:32:43;101350.72;;;18.98;79.01
41254;BME280;26987;59.928;30.306;2023-06-26T02:35:12;101356.66;;;18.95;78.38
41254;BME280;26987;59.928;30.306;2023-06-26T02:37:42;101346.88;;;18.94;77.11
41254;BME280;26987;59.928;30.306;2023-06-26T02:40:11;101357.78;;;18.99;76.48
41254;BME280;26987;59.928;30.306;2023-06-26T02:42:41;101346.78;;;18.89;76.78
41254;BME280;26987;59.928;30.306;2023-06-26T02:45:09;101356.50;;;18.85;77.73
41254;BME280;26987;59.928;30.306;2023-06-26T02:47:37;101356.16;;;18.98;76.70
41254;BME280;26987;59.928;30.306;2023-06-26T02:50:09;101365.13;;;18.82;77.06
41254;BME280;26987;59.928;30.306;2023-06-26T02:52:56;101350.41;;;18.77;78.05
41254;BME280;26987;59.928;30.306;2023-06-26T02:55:26;101351.34;;;18.66;78.42
41254;BME280;26987;59.928;30.306;2023-06-26T02:57:55;101355.53;;;18.57;78.69
41254;BME280;26987;59.928;30.306;2023-06-26T03:00:24;101360.47;;;18.60;79.40
41254;BME280;26987;59.928;30.306;2023-06-26T03:02:53;101355.03;;;18.60;79.70
41254;BME280;26987;59.928;30.306;2023-06-26T03:05:23;101348.03;;;18.64;79.75
41254;BME280;26987;59.928;30.306;2023-06-26T03:07:51;101354.53;;;18.63;80.31
41254;BME280;26987;59.928;30.306;2023-06-26T03:10:21;101347.63;;;18.55;80.27
41254;BME280;26987;59.928;30.306;2023-06-26T03:12:48;101340.53;;;18.54;80.32
41254;BME280;26987;59.928;30.306;2023-06-26T03:15:18;101347.44;;;18.62;79.65
41254;BME280;26987;59.928;30.306;2023-06-26T03:17:46;101334.44;;;18.64;79.25
41254;BME280;26987;59.928;30.306;2023-06-26T03:20:21;101343.00;;;18.73;78.57
41254;BME280;26987;59.928;30.306;2023-06-26T03:22:54;101347.44;;;18.79;78.31
41254;BME280;26987;59.928;30.306;2023-06-26T03:25:25;101354.53;;;18.97;78.22
41254;BME280;26987;59.928;30.306;2023-06-26T03:28:13;101353.19;;;19.00;78.33
41254;BME280;26987;59.928;30.306;2023-06-26T03:30:42;101354.22;;;19.11;79.01
41254;BME280;26987;59.928;30.306;2023-06-26T03:33:10;101347.25;;;19.03;79.26
41254;BME280;26987;59.928;30.306;2023-06-26T03:35:38;101347.59;;;19.07;80.50
41254;BME280;26987;59.928;30.306;2023-06-26T03:38:10;101335.06;;;19.23;80.63
41254;BME280;26987;59.928;30.306;2023-06-26T03:40:39;101349.66;;;19.84;78.34
41254;BME280;26987;59.928;30.306;2023-06-26T03:43:07;101361.09;;;20.96;74.60
41254;BME280;26987;59.928;30.306;2023-06-26T03:45:45;101358.94;;;22.63;67.73
41254;BME280;26987;59.928;30.306;2023-06-26T03:48:13;101342.50;;;23.76;62.89
41254;BME280;26987;59.928;30.306;2023-06-26T03:50:42;101349.22;;;25.28;57.60
41254;BME280;26987;59.928;30.306;2023-06-26T03:53:10;101355.91;;;26.43;52.93
41254;BME280;26987;59.928;30.306;2023-06-26T03:55:42;101359.78;;;26.89;51.17
41254;BME280;26987;59.928;30.306;2023-06-26T03:58:10;101362.25;;;26.57;50.64
41254;BME280;26987;59.928;30.306;2023-06-26T04:00:38;101353.63;;;26.64;50.35
41254;BME280;26987;59.928;30.306;2023-06-26T04:03:06;101351.47;;;27.23;49.08
41254;BME280;26987;59.928;30.306;2023-06-26T04:05:35;101348.78;;;28.33;45.74
41254;BME280;26987;59.928;30.306;2023-06-26T04:08:03;101353.75;;;28.86;44.68
41254;BME280;26987;59.928;30.306;2023-06-26T04:10:31;101346.31;;;29.27;42.90
41254;BME280;26987;59.928;30.306;2023-06-26T04:13:00;101359.06;;;30.52;39.38
41254;BME280;26987;59.928;30.306;2023-06-26T04:15:28;101360.97;;;30.61;38.55
41254;BME280;26987;59.928;30.306;2023-06-26T04:17:56;101350.16;;;30.20;39.01
41254;BME280;26987;59.928;30.306;2023-06-26T04:20:24;101345.63;;;30.81;37.95
41254;BME280;26987;59.928;30.306;2023-06-26T04:22:52;101347.06;;;29.86;39.54
41254;BME280;26987;59.928;30.306;2023-06-26T04:25:20;101342.69;;;29.85;38.88
41254;BME280;26987;59.928;30.306;2023-06-26T04:27:48;101344.78;;;30.32;38.05
41254;BME280;26987;59.928;30.306;2023-06-26T04:30:17;101348.38;;;30.90;36.71
41254;BME280;26987;59.928;30.306;2023-06-26T04:32:45;101347.81;;;31.05;36.72
41254;BME280;26987;59.928;30.306;2023-06-26T04:35:13;101342.13;;;31.02;36.90
41254;BME280;26987;59.928;30.306;2023-06-26T04:37:41;101335.91;;;31.65;35.29
41254;BME280;26987;59.928;30.306;2023-06-26T04:40:10;101339.66;;;32.25;34.16
41254;BME280;26987;59.928;30.306;2023-06-26T04:42:38;101341.34;;;32.17;34.29
41254;BME280;26987;59.928;30.306;2023-06-26T04:45:06;101336.97;;;31.21;35.40
41254;BME280;26987;59.928;30.306;2023-06-26T04:47:36;101323.78;;;30.40;36.32
41254;BME280;26987;59.928;30.306;2023-06-26T04:50:04;101333.09;;;30.00;37.07
41254;BME280;26987;59.928;30.306;2023-06-26T04:52:32;101318.22;;;30.49;36.33
41254;BME280;26987;59.928;30.306;2023-06-26T04:55:00;101330.94;;;30.98;35.38
41254;BME280;26987;59.928;30.306;2023-06-26T04:57:28;101321.69;;;31.45;34.71
41254;BME280;26987;59.928;30.306;2023-06-26T04:59:56;101325.38;;;30.98;34.45
41254;BME280;26987;59.928;30.306;2023-06-26T05:02:24;101328.09;;;30.59;35.50
41254;BME280;26987;59.928;30.306;2023-06-26T05:04:54;101328.03;;;30.20;35.83
41254;BME280;26987;59.928;30.306;2023-06-26T05:07:22;101320.25;;;30.70;35.30
41254;BME280;26987;59.928;30.306;2023-06-26T05:09:50;101318.94;;;31.67;33.51
41254;BME280;26987;59.928;30.306;2023-06-26T05:12:18;101332.88;;;31.92;32.92
41254;BME280;26987;59.928;30.306;2023-06-26T05:14:46;101335.16;;;31.77;32.74
41254;BME280;26987;59.928;30.306;2023-06-26T05:17:14;101330.81;;;31.16;34.02
41254;BME280;26987;59.928;30.306;2023-06-26T05:19:42;101331.81;;;31.11;33.88
41254;BME280;26987;59.928;30.306;2023-06-26T05:22:12;101325.13;;;31.12;34.17
41254;BME280;26987;59.928;30.306;2023-06-26T05:24:41;101335.03;;;31.22;34.16
41254;BME280;26987;59.928;30.306;2023-06-26T05:27:11;101325.47;;;31.83;33.31
41254;BME280;26987;59.928;30.306;2023-06-26T05:29:48;101325.50;;;31.62;33.13
41254;BME280;26987;59.928;30.306;2023-06-26T05:32:17;101336.56;;;31.83;32.66
41254;BME280;26987;59.928;30.306;2023-06-26T05:34:47;101334.25;;;31.85;32.29
41254;BME280;26987;59.928;30.306;2023-06-26T05:37:19;101336.81;;;31.91;32.19
41254;BME280;26987;59.928;30.306;2023-06-26T05:39:48;101314.75;;;31.61;32.21
41254;BME280;26987;59.928;30.306;2023-06-26T05:42:17;101323.78;;;32.25;31.73
41254;BME280;26987;59.928;30.306;2023-06-26T05:44:45;101335.19;;;32.45;31.03
41254;BME280;26987;59.928;30.306;2023-06-26T05:47:13;101327.84;;;32.74;30.57
41254;BME280;26987;59.928;30.306;2023-06-26T05:49:41;101316.03;;;32.65;30.63
41254;BME280;26987;59.928;30.306;2023-06-26T05:52:10;101325.06;;;32.87;30.46
41254;BME280;26987;59.928;30.306;2023-06-26T05:54:40;101331.22;;;32.00;31.37
41254;BME280;26987;59.928;30.306;2023-06-26T05:57:09;101321.84;;;31.70;31.62
41254;BME280;26987;59.928;30.306;2023-06-26T05:59:39;101319.41;;;31.69;32.33
41254;BME280;26987;59.928;30.306;2023-06-26T06:02:08;101320.16;;;31.36;32.62
41254;BME280;26987;59.928;30.306;2023-06-26T06:04:36;101314.06;;;31.12;32.63
41254;BME280;26987;59.928;30.306;2023-06-26T06:07:04;101317.25;;;31.75;32.03
41254;BME280;26987;59.928;30.306;2023-06-26T06:09:32;101317.50;;;31.61;32.26
41254;BME280;26987;59.928;30.306;2023-06-26T06:12:02;101322.97;;;31.91;31.92
41254;BME280;26987;59.928;30.306;2023-06-26T06:14:31;101320.72;;;32.39;31.17
41254;BME280;26987;59.928;30.306;2023-06-26T06:16:59;101321.41;;;33.07;30.59
41254;BME280;26987;59.928;30.306;2023-06-26T06:19:26;101319.91;;;32.26;31.39
41254;BME280;26987;59.928;30.306;2023-06-26T06:21:54;101323.66;;;30.76;33.53
41254;BME280;26987;59.928;30.306;2023-06-26T06:24:22;101335.03;;;29.91;35.12
41254;BME280;26987;59.928;30.306;2023-06-26T06:26:50;101321.25;;;29.06;36.23
41254;BME280;26987;59.928;30.306;2023-06-26T06:29:19;101315.94;;;27.49;39.63
41254;BME280;26987;59.928;30.306;2023-06-26T06:31:47;101315.72;;;27.74;38.85
41254;BME280;26987;59.928;30.306;2023-06-26T06:34:15;101320.50;;;27.17;40.41
41254;BME280;26987;59.928;30.306;2023-06-26T06:36:43;101325.75;;;26.85;41.23
41254;BME280;26987;59.928;30.306;2023-06-26T06:39:11;101309.25;;;26.99;40.84
41254;BME280;26987;59.928;30.306;2023-06-26T06:41:39;101320.47;;;27.31;40.09
41254;BME280;26987;59.928;30.306;2023-06-26T06:44:07;101308.03;;;26.91;40.84
41254;BME280;26987;59.928;30.306;2023-06-26T06:46:36;101312.72;;;26.91;41.14
41254;BME280;26987;59.928;30.306;2023-06-26T06:49:04;101316.38;;;27.28;40.60
41254;BME280;26987;59.928;30.306;2023-06-26T06:51:32;101307.75;;;27.07;40.81
41254;BME280;26987;59.928;30.306;2023-06-26T06:54:01;101310.13;;;25.80;43.91
41254;BME280;26987;59.928;30.306;2023-06-26T06:56:29;101308.56;;;27.07;41.16
41254;BME280;26987;59.928;30.306;2023-06-26T06:58:58;101306.78;;;27.68;39.69
41254;BME280;26987;59.928;30.306;2023-06-26T07:01:26;101309.34;;;27.22;40.58
41254;BME280;26987;59.928;30.306;2023-06-26T07:03:55;101307.31;;;25.86;43.96
41254;BME280;26987;59.928;30.306;2023-06-26T07:06:24;101314.84;;;25.55;45.35
41254;BME280;26987;59.928;30.306;2023-06-26T07:08:51;101305.78;;;26.32;43.17
41254;BME280;26987;59.928;30.306;2023-06-26T07:11:19;101290.25;;;26.55;42.49
41254;BME280;26987;59.928;30.306;2023-06-26T07:13:47;101308.63;;;26.88;41.39
41254;BME280;26987;59.928;30.306;2023-06-26T07:16:15;101304.25;;;26.73;41.57
41254;BME280;26987;59.928;30.306;2023-06-26T07:18:43;101302.28;;;26.60;42.54
41254;BME280;26987;59.928;30.306;2023-06-26T07:21:12;101311.38;;;26.88;41.67
41254;BME280;26987;59.928;30.306;2023-06-26T07:23:40;101308.28;;;26.28;42.06
41254;BME280;26987;59.928;30.306;2023-06-26T07:26:07;101312.81;;;25.86;43.60
41254;BME280;26987;59.928;30.306;2023-06-26T07:28:35;101303.34;;;25.10;45.89
41254;BME280;26987;59.928;30.306;2023-06-26T07:31:03;101306.69;;;25.26;46.73
41254;BME280;26987;59.928;30.306;2023-06-26T07:33:31;101313.38;;;25.19;46.29
41254;BME280;26987;59.928;30.306;2023-06-26T07:35:59;101320.16;;;25.03;46.52
41254;BME280;26987;59.928;30.306;2023-06-26T07:38:28;101311.22;;;24.92;47.26
41254;BME280;26987;59.928;30.306;2023-06-26T07:40:56;101309.28;;;24.63;47.83
41254;BME280;26987;59.928;30.306;2023-06-26T07:43:24;101313.78;;;24.53;47.89
41254;BME280;26987;59.928;30.306;2023-06-26T07:45:52;101300.31;;;24.22;48.87
41254;BME280;26987;59.928;30.306;2023-06-26T07:48:20;101290.97;;;23.88;50.13
41254;BME280;26987;59.928;30.306;2023-06-26T07:50:48;101302.06;;;24.08;50.34
41254;BME280;26987;59.928;30.306;2023-06-26T07:53:16;101302.56;;;24.15;49.32
41254;BME280;26987;59.928;30.306;2023-06-26T07:55:45;101309.22;;;23.98;49.32
41254;BME280;26987;59.928;30.306;2023-06-26T07:58:13;101297.38;;;23.73;50.24
41254;BME280;26987;59.928;30.306;2023-06-26T08:00:41;101294.91;;;23.66;51.17
41254;BME280;26987;59.928;30.306;2023-06-26T08:03:09;101297.28;;;23.84;52.07
41254;BME280;26987;59.928;30.306;2023-06-26T08:05:37;101293.56;;;24.09;49.37
41254;BME280;26987;59.928;30.306;2023-06-26T08:08:04;101302.28;;;24.51;48.86
41254;BME280;26987;59.928;30.306;2023-06-26T08:10:33;101291.50;;;24.60;47.38
41254;BME280;26987;59.928;30.306;2023-06-26T08:13:02;101303.41;;;24.75;47.50
41254;BME280;26987;59.928;30.306;2023-06-26T08:15:30;101294.88;;;24.76;47.48
41254;BME280;26987;59.928;30.306;2023-06-26T08:17:58;101293.84;;;24.72;48.23
41254;BME280;26987;59.928;30.306;2023-06-26T08:20:26;101298.41;;;24.52;48.31
41254;BME280;26987;59.928;30.306;2023-06-26T08:22:54;101287.63;;;24.37;47.93
41254;BME280;26987;59.928;30.306;2023-06-26T08:25:22;101293.47;;;24.54;47.67
41254;BME280;26987;59.928;30.306;2023-06-26T08:27:50;101295.69;;;24.52;47.17
41254;BME280;26987;59.928;30.306;2023-06-26T08:30:20;101294.75;;;24.33;48.72
41254;BME280;26987;59.928;30.306;2023-06-26T08:32:48;101286.03;;;24.60;47.53
41254;BME280;26987;59.928;30.306;2023-06-26T08:35:17;101294.22;;;24.90;47.48
41254;BME280;26987;59.928;30.306;2023-06-26T08:37:46;101290.09;;;24.92;47.65
41254;BME280;26987;59.928;30.306;2023-06-26T08:40:16;101308.41;;;25.22;46.97
41254;BME280;26987;59.928;30.306;2023-06-26T08:42:44;101293.44;;;24.89;47.56
41254;BME280;26987;59.928;30.306;2023-06-26T08:45:13;101296.88;;;24.41;47.39
41254;BME280;26987;59.928;30.306;2023-06-26T08:47:43;101285.56;;;23.78;50.81
41254;BME280;26987;59.928;30.306;2023-06-26T08:50:13;101308.38;;;23.58;51.64
41254;BME280;26987;59.928;30.306;2023-06-26T08:52:43;101275.19;;;23.14;52.73
41254;BME280;26987;59.928;30.306;2023-06-26T08:55:15;101292.16;;;23.05;53.24
41254;BME280;26987;59.928;30.306;2023-06-26T08:57:43;101296.28;;;22.92;53.24
41254;BME280;26987;59.928;30.306;2023-06-26T09:00:13;101296.00;;;22.99;54.19
41254;BME280;26987;59.928;30.306;2023-06-26T09:02:43;101289.91;;;23.23;52.65
41254;BME280;26987;59.928;30.306;2023-06-26T09:05:12;101286.56;;;23.47;52.27
41254;BME280;26987;59.928;30.306;2023-06-26T09:07:39;101300.53;;;23.86;49.98
41254;BME280;26987;59.928;30.306;2023-06-26T09:10:08;101290.13;;;23.88;50.25
41254;BME280;26987;59.928;30.306;2023-06-26T09:12:37;101303.75;;;23.98;49.89
41254;BME280;26987;59.928;30.306;2023-06-26T09:15:06;101293.56;;;23.64;50.67
41254;BME280;26987;59.928;30.306;2023-06-26T09:17:38;101287.22;;;23.74;51.15
41254;BME280;26987;59.928;30.306;2023-06-26T09:20:09;101288.09;;;23.69;51.02
41254;BME280;26987;59.928;30.306;2023-06-26T09:22:40;101268.53;;;23.41;51.26
41254;BME280;26987;59.928;30.306;2023-06-26T09:25:09;101285.03;;;23.76;50.36
41254;BME280;26987;59.928;30.306;2023-06-26T09:27:37;101277.91;;;24.20;49.53
41254;BME280;26987;59.928;30.306;2023-06-26T09:30:06;101277.41;;;24.42;48.99
41254;BME280;26987;59.928;30.306;2023-06-26T09:32:35;101267.44;;;24.81;48.11
41254;BME280;26987;59.928;30.306;2023-06-26T09:35:04;101286.03;;;24.85;47.17
41254;BME280;26987;59.928;30.306;2023-06-26T09:37:34;101270.00;;;24.43;48.00
41254;BME280;26987;59.928;30.306;2023-06-26T09:40:02;101270.09;;;24.33;48.20
41254;BME280;26987;59.928;30.306;2023-06-26T09:42:31;101281.69;;;24.24;48.41
41254;BME280;26987;59.928;30.306;2023-06-26T09:44:59;101264.53;;;24.08;48.18
41254;BME280;26987;59.928;30.306;2023-06-26T09:47:30;101274.19;;;24.00;48.74
41254;BME280;26987;59.928;30.306;2023-06-26T09:49:58;101174.84;;;23.09;49.53
41254;BME280;26987;59.928;30.306;2023-06-26T09:52:26;101267.97;;;23.44;51.54
41254;BME280;26987;59.928;30.306;2023-06-26T09:55:09;101270.69;;;23.44;51.70
41254;BME280;26987;59.928;30.306;2023-06-26T09:57:38;101259.31;;;23.11;51.87
41254;BME280;26987;59.928;30.306;2023-06-26T10:00:07;101254.91;;;23.20;52.45
41254;BME280;26987;59.928;30.306;2023-06-26T10:02:39;101256.88;;;23.65;51.06
41254;BME280;26987;59.928;30.306;2023-06-26T10:05:07;101252.66;;;23.83;48.87
41254;BME280;26987;59.928;30.306;2023-06-26T10:07:35;101259.72;;;23.94;48.50
41254;BME280;26987;59.928;30.306;2023-06-26T10:10:05;101249.69;;;24.19;48.17
41254;BME280;26987;59.928;30.306;2023-06-26T10:12:36;101252.19;;;24.46;47.15
41254;BME280;26987;59.928;30.306;2023-06-26T10:15:05;101249.06;;;24.58;46.04
41254;BME280;26987;59.928;30.306;2023-06-26T10:17:38;101244.00;;;24.40;46.43
41254;BME280;26987;59.928;30.306;2023-06-26T10:20:10;101238.16;;;24.23;47.59
41254;BME280;26987;59.928;30.306;2023-06-26T10:22:42;101242.34;;;24.10;47.79
41254;BME280;26987;59.928;30.306;2023-06-26T10:25:15;101239.72;;;23.94;48.75
41254;BME280;26987;59.928;30.306;2023-06-26T10:27:50;101232.06;;;23.96;49.31
41254;BME280;26987;59.928;30.306;2023-06-26T10:30:22;101243.22;;;24.05;48.67
41254;BME280;26987;59.928;30.306;2023-06-26T10:32:52;101236.34;;;24.08;49.25
41254;BME280;26987;59.928;30.306;2023-06-26T10:35:20;101193.66;;;24.01;49.20
41254;BME280;26987;59.928;30.306;2023-06-26T10:37:49;101206.00;;;23.99;48.67
41254;BME280;26987;59.928;30.306;2023-06-26T10:40:22;101223.34;;;24.24;47.72
41254;BME280;26987;59.928;30.306;2023-06-26T10:42:51;101238.91;;;24.28;46.88
41254;BME280;26987;59.928;30.306;2023-06-26T10:45:33;101240.03;;;24.27;46.68
41254;BME280;26987;59.928;30.306;2023-06-26T10:48:01;101239.72;;;24.59;46.96
41254;BME280;26987;59.928;30.306;2023-06-26T10:50:31;101236.44;;;24.81;47.06
41254;BME280;26987;59.928;30.306;2023-06-26T10:53:09;101238.81;;;24.93;46.39
41254;BME280;26987;59.928;30.306;2023-06-26T10:55:37;101237.44;;;24.66;47.98
41254;BME280;26987;59.928;30.306;2023-06-26T10:58:26;101220.09;;;24.46;47.68
41254;BME280;26987;59.928;30.306;2023-06-26T11:01:14;101225.50;;;24.27;48.43
41254;BME280;26987;59.928;30.306;2023-06-26T11:03:44;101190.25;;;23.85;49.18
41254;BME280;26987;59.928;30.306;2023-06-26T11:06:14;101228.84;;;23.84;48.76
41254;BME280;26987;59.928;30.306;2023-06-26T11:08:45;101228.59;;;23.80;49.73
41254;BME280;26987;59.928;30.306;2023-06-26T11:11:14;101230.63;;;23.69;51.61
41254;BME280;26987;59.928;30.306;2023-06-26T11:13:45;101198.16;;;23.52;53.16
41254;BME280;26987;59.928;30.306;2023-06-26T11:16:14;101223.47;;;23.68;56.71
41254;BME280;26987;59.928;30.306;2023-06-26T11:18:43;101216.22;;;23.88;58.07
41254;BME280;26987;59.928;30.306;2023-06-26T11:21:12;101201.41;;;23.94;52.54
41254;BME280;26987;59.928;30.306;2023-06-26T11:23:41;101201.84;;;24.06;50.60
41254;BME280;26987;59.928;30.306;2023-06-26T11:26:14;101203.47;;;24.08;50.46
41254;BME280;26987;59.928;30.306;2023-06-26T11:28:51;101183.63;;;23.91;50.45
41254;BME280;26987;59.928;30.306;2023-06-26T11:31:25;101204.03;;;23.69;51.47
41254;BME280;26987;59.928;30.306;2023-06-26T11:33:53;101200.31;;;23.55;51.64
41254;BME280;26987;59.928;30.306;2023-06-26T11:36:23;101205.13;;;23.28;51.43
41254;BME280;26987;59.928;30.306;2023-06-26T11:38:55;101213.06;;;23.19;52.07
41254;BME280;26987;59.928;30.306;2023-06-26T11:41:25;101212.59;;;23.07;51.32
41254;BME280;26987;59.928;30.306;2023-06-26T11:43:55;101205.00;;;22.88;52.39
41254;BME280;26987;59.928;30.306;2023-06-26T11:46:24;101231.28;;;22.84;57.34
41254;BME280;26987;59.928;30.306;2023-06-26T11:48:52;101230.53;;;22.58;58.98
41254;BME280;26987;59.928;30.306;2023-06-26T11:51:20;101213.59;;;22.29;62.40
41254;BME280;26987;59.928;30.306;2023-06-26T11:53:50;101211.16;;;22.17;64.30
41254;BME280;26987;59.928;30.306;2023-06-26T11:56:19;101208.72;;;22.05;65.96
41254;BME280;26987;59.928;30.306;2023-06-26T11:59:10;101215.25;;;22.15;66.59
41254;BME280;26987;59.928;30.306;2023-06-26T12:01:40;101194.47;;;21.72;67.69
41254;BME280;26987;59.928;30.306;2023-06-26T12:04:09;101217.41;;;21.76;68.09
41254;BME280;26987;59.928;30.306;2023-06-26T12:06:38;101215.22;;;21.68;67.94
41254;BME280;26987;59.928;30.306;2023-06-26T12:09:09;101207.84;;;21.63;68.27
41254;BME280;26987;59.928;30.306;2023-06-26T12:11:38;101212.72;;;21.46;70.62
41254;BME280;26987;59.928;30.306;2023-06-26T12:14:10;101214.59;;;21.29;70.41
41254;BME280;26987;59.928;30.306;2023-06-26T12:16:38;101239.09;;;21.24;71.00
41254;BME280;26987;59.928;30.306;2023-06-26T12:19:07;101242.03;;;21.07;70.24
41254;BME280;26987;59.928;30.306;2023-06-26T12:21:47;101247.47;;;21.07;71.93
41254;BME280;26987;59.928;30.306;2023-06-26T12:24:19;101251.25;;;20.58;83.97
41254;BME280;26987;59.928;30.306;2023-06-26T12:26:50;101246.97;;;19.96;90.61
41254;BME280;26987;59.928;30.306;2023-06-26T12:29:22;101219.53;;;19.20;94.89
41254;BME280;26987;59.928;30.306;2023-06-26T12:31:56;101232.91;;;18.65;92.62
41254;BME280;26987;59.928;30.306;2023-06-26T12:34:32;101244.09;;;18.51;98.39
41254;BME280;26987;59.928;30.306;2023-06-26T12:37:01;101249.72;;;18.27;100.00
41254;BME280;26987;59.928;30.306;2023-06-26T12:39:45;101213.84;;;18.25;100.00
41254;BME280;26987;59.928;30.306;2023-06-26T12:42:14;101239.03;;;18.21;100.00
41254;BME280;26987;59.928;30.306;2023-06-26T12:44:44;101240.50;;;18.28;100.00
41254;BME280;26987;59.928;30.306;2023-06-26T12:47:12;101235.38;;;18.15;100.00
41254;BME280;26987;59.928;30.306;2023-06-26T12:49:42;101239.19;;;18.14;100.00